createdAt,value
2022-09-23T00:01:29.494Z,11.13
2022-09-23T00:04:02.941Z,9.18
2022-09-23T00:06:34.119Z,9.48
2022-09-23T00:09:08.693Z,11.13
2022-09-23T00:11:39.071Z,12.50
2022-09-23T00:14:13.469Z,10.73
2022-09-23T00:16:42.265Z,9.00
2022-09-23T00:19:13.515Z,13.07
2022-09-23T00:21:42.950Z,12.73
2022-09-23T00:24:11.466Z,11.82
2022-09-23T00:26:48.787Z,10.60
2022-09-23T00:29:21.831Z,10.10
2022-09-23T00:31:50.212Z,8.10
2022-09-23T00:34:24.300Z,8.55
2022-09-23T00:36:54.876Z,9.73
2022-09-23T00:39:23.262Z,9.75
2022-09-23T00:41:51.961Z,11.02
2022-09-23T00:44:46.349Z,11.80
2022-09-23T00:47:23.190Z,9.93
2022-09-23T00:50:02.350Z,10.85
2022-09-23T00:52:32.960Z,10.45
2022-09-23T00:55:05.658Z,8.90
2022-09-23T00:57:40.477Z,10.70
2022-09-23T01:00:13.479Z,11.50
2022-09-23T01:02:42.511Z,10.63
2022-09-23T01:05:19.017Z,9.40
2022-09-23T01:07:50.984Z,12.73
2022-09-23T01:10:27.229Z,10.35
2022-09-23T01:13:08.722Z,10.13
2022-09-23T01:15:42.957Z,9.30
2022-09-23T01:18:22.435Z,16.95
2022-09-23T01:21:03.647Z,8.75
2022-09-23T01:24:18.089Z,10.32
2022-09-23T01:27:13.930Z,11.32
2022-09-23T01:30:14.702Z,13.82
2022-09-23T01:33:14.934Z,10.93
2022-09-23T01:35:56.721Z,13.25
2022-09-23T01:38:37.879Z,11.85
2022-09-23T01:41:15.561Z,11.88
2022-09-23T01:43:53.192Z,13.07
2022-09-23T01:46:33.953Z,12.43
2022-09-23T01:49:09.162Z,12.05
2022-09-23T01:51:45.589Z,12.95
2022-09-23T01:54:18.471Z,11.45
2022-09-23T01:56:55.536Z,12.75
2022-09-23T01:59:33.214Z,13.07
2022-09-23T02:02:08.281Z,12.23
2022-09-23T02:04:51.569Z,13.50
2022-09-23T02:07:28.656Z,11.77
2022-09-23T02:10:02.457Z,12.95
2022-09-23T02:15:08.396Z,11.13
2022-09-23T02:17:44.118Z,12.15
2022-09-23T02:20:15.962Z,10.60
2022-09-23T02:22:58.251Z,12.30
2022-09-23T02:25:35.123Z,9.02
2022-09-23T02:28:10.154Z,10.88
2022-09-23T02:30:46.881Z,11.43
2022-09-23T02:33:23.182Z,9.65
2022-09-23T02:35:59.517Z,9.07
2022-09-23T02:38:44.652Z,11.63
2022-09-23T02:41:20.202Z,10.93
2022-09-23T02:43:57.915Z,9.27
2022-09-23T02:46:26.621Z,9.93
2022-09-23T02:49:01.069Z,9.77
2022-09-23T02:51:38.010Z,9.05
2022-09-23T02:54:22.308Z,8.38
2022-09-23T02:56:51.004Z,8.88
2022-09-23T02:59:20.352Z,10.10
2022-09-23T03:01:58.688Z,10.00
2022-09-23T03:04:39.424Z,9.75
2022-09-23T03:07:21.114Z,9.88
2022-09-23T03:09:56.307Z,12.30
2022-09-23T03:12:50.254Z,11.95
2022-09-23T03:15:29.918Z,9.70
2022-09-23T03:18:06.119Z,13.93
2022-09-23T03:20:43.847Z,9.70
2022-09-23T03:23:19.176Z,8.85
2022-09-23T03:25:53.157Z,8.23
2022-09-23T03:28:22.943Z,10.00
2022-09-23T03:30:55.129Z,11.82
2022-09-23T03:33:30.599Z,9.00
2022-09-23T03:36:23.558Z,10.70
2022-09-23T03:39:03.950Z,10.45
2022-09-23T03:41:45.712Z,11.20
2022-09-23T03:44:15.699Z,12.65
2022-09-23T03:46:50.007Z,14.13
2022-09-23T03:49:27.409Z,10.20
2022-09-23T03:52:01.200Z,12.63
2022-09-23T03:54:34.142Z,10.05
2022-09-23T03:57:08.120Z,10.20
2022-09-23T03:59:39.688Z,10.93
2022-09-23T04:02:09.623Z,10.45
2022-09-23T04:04:39.083Z,11.98
2022-09-23T04:07:08.331Z,11.02
2022-09-23T04:09:39.797Z,10.80
2022-09-23T04:12:16.207Z,10.55
2022-09-23T04:14:51.991Z,11.10
2022-09-23T04:17:26.992Z,11.48
2022-09-23T04:19:57.831Z,9.80
2022-09-23T04:22:26.303Z,12.00
2022-09-23T04:25:00.426Z,10.25
2022-09-23T04:27:37.478Z,12.27
2022-09-23T04:30:09.295Z,10.77
2022-09-23T04:33:06.599Z,8.18
2022-09-23T04:35:40.352Z,8.05
2022-09-23T04:38:12.836Z,8.77
2022-09-23T04:40:44.335Z,9.15
2022-09-23T04:43:15.985Z,8.73
2022-09-23T04:45:48.039Z,9.48
2022-09-23T04:48:19.384Z,8.63
2022-09-23T04:50:51.717Z,7.72
2022-09-23T04:53:21.439Z,8.65
2022-09-23T04:55:56.916Z,8.85
2022-09-23T04:58:31.647Z,6.90
2022-09-23T05:01:05.210Z,8.15
2022-09-23T05:03:43.343Z,7.90
2022-09-23T05:06:15.961Z,6.93
2022-09-23T05:08:55.531Z,9.07
2022-09-23T05:11:27.520Z,6.80
2022-09-23T05:14:02.278Z,9.73
2022-09-23T05:16:36.091Z,6.18
2022-09-23T05:19:04.901Z,8.43
2022-09-23T05:21:45.967Z,5.13
2022-09-23T05:24:19.407Z,5.00
2022-09-23T05:26:54.686Z,5.55
2022-09-23T05:29:23.170Z,7.53
2022-09-23T05:31:54.340Z,6.07
2022-09-23T05:34:25.301Z,7.40
2022-09-23T05:37:00.209Z,5.55
2022-09-23T05:39:29.182Z,8.13
2022-09-23T05:42:03.397Z,5.93
2022-09-23T05:44:33.051Z,5.85
2022-09-23T05:47:04.760Z,6.88
2022-09-23T05:49:57.988Z,5.43
2022-09-23T05:52:26.123Z,7.53
2022-09-23T05:55:07.646Z,8.27
2022-09-23T05:57:40.214Z,6.13
2022-09-23T06:00:25.805Z,4.55
2022-09-23T06:02:56.718Z,7.10
2022-09-23T06:05:33.911Z,7.07
2022-09-23T06:08:03.932Z,8.07
2022-09-23T06:10:32.444Z,6.07
2022-09-23T06:13:11.550Z,7.57
2022-09-23T06:15:44.631Z,7.97
2022-09-23T06:18:16.250Z,6.00
2022-09-23T06:20:51.024Z,11.15
2022-09-23T06:23:22.315Z,6.72
2022-09-23T06:25:52.303Z,6.40
2022-09-23T06:28:32.479Z,9.88
2022-09-23T06:31:12.285Z,6.88
2022-09-23T06:33:43.092Z,8.13
2022-09-23T06:36:12.640Z,6.03
2022-09-23T06:38:41.990Z,7.75
2022-09-23T06:41:12.802Z,6.72
2022-09-23T06:43:43.935Z,8.65
2022-09-23T06:46:15.874Z,7.93
2022-09-23T06:48:46.354Z,9.02
2022-09-23T06:51:20.344Z,6.88
2022-09-23T06:53:55.713Z,9.13
2022-09-23T06:56:37.981Z,8.02
2022-09-23T06:59:18.720Z,8.70
2022-09-23T07:01:51.085Z,6.25
2022-09-23T07:04:25.044Z,9.35
2022-09-23T07:06:57.279Z,5.97
2022-09-23T07:09:29.351Z,6.35
2022-09-23T07:12:02.996Z,10.65
2022-09-23T07:14:36.836Z,8.70
2022-09-23T07:17:09.967Z,10.25
2022-09-23T07:19:38.425Z,9.23
2022-09-23T07:22:08.074Z,9.02
2022-09-23T07:24:39.141Z,7.35
2022-09-23T07:27:07.760Z,10.55
2022-09-23T07:29:46.074Z,8.80
2022-09-23T07:32:25.581Z,8.52
2022-09-23T07:34:58.383Z,7.10
2022-09-23T07:37:41.246Z,6.43
2022-09-23T07:40:14.875Z,7.53
2022-09-23T07:42:45.668Z,11.23
2022-09-23T07:45:25.189Z,6.35
2022-09-23T07:47:55.425Z,8.02
2022-09-23T07:50:25.946Z,6.80
2022-09-23T07:53:03.133Z,5.55
2022-09-23T07:55:32.309Z,13.93
2022-09-23T07:58:01.840Z,10.05
2022-09-23T08:00:33.885Z,6.85
2022-09-23T08:03:03.038Z,6.25
2022-09-23T08:05:32.092Z,6.97
2022-09-23T08:08:03.060Z,8.77
2022-09-23T08:10:34.541Z,10.23
2022-09-23T08:13:03.645Z,5.22
2022-09-23T08:15:34.494Z,7.10
2022-09-23T08:18:05.953Z,5.05
2022-09-23T08:20:47.967Z,6.35
2022-09-23T08:23:20.598Z,6.22
2022-09-23T08:25:52.945Z,6.03
2022-09-23T08:28:22.113Z,8.30
2022-09-23T08:30:58.599Z,7.57
2022-09-23T08:33:36.365Z,4.88
2022-09-23T08:36:09.170Z,6.80
2022-09-23T08:38:37.644Z,8.32
2022-09-23T08:41:19.658Z,12.20
2022-09-23T08:43:51.007Z,7.45
2022-09-23T08:46:29.511Z,9.95
2022-09-23T08:49:03.523Z,8.27
2022-09-23T08:51:40.314Z,3.65
2022-09-23T08:54:22.064Z,4.35
2022-09-23T08:56:57.319Z,9.23
2022-09-23T08:59:33.456Z,6.35
2022-09-23T09:02:10.662Z,6.75
2022-09-23T09:04:47.323Z,7.07
2022-09-23T09:07:37.112Z,8.43
2022-09-23T09:10:13.597Z,6.43
2022-09-23T09:12:47.654Z,9.80
2022-09-23T09:15:24.617Z,7.38
2022-09-23T09:18:16.612Z,3.65
2022-09-23T09:20:51.743Z,4.68
2022-09-23T09:23:30.314Z,4.25
2022-09-23T09:26:00.823Z,4.93
2022-09-23T09:28:35.914Z,3.20
2022-09-23T09:31:15.532Z,3.70
2022-09-23T09:33:54.571Z,5.50
2022-09-23T09:36:37.858Z,4.55
2022-09-23T09:39:10.140Z,3.95
2022-09-23T09:41:39.664Z,3.80
2022-09-23T09:44:18.682Z,3.60
2022-09-23T09:47:02.114Z,3.20
2022-09-23T09:49:44.316Z,3.92
2022-09-23T09:52:23.880Z,3.78
2022-09-23T09:54:53.233Z,3.95
2022-09-23T09:57:35.254Z,3.33
2022-09-23T10:00:40.056Z,4.40
2022-09-23T10:03:27.930Z,5.55
2022-09-23T10:06:02.554Z,3.55
2022-09-23T10:14:06.919Z,4.35
2022-09-23T10:16:40.142Z,3.10
2022-09-23T10:19:35.230Z,5.47
2022-09-23T10:22:21.944Z,3.90
2022-09-23T10:24:57.053Z,4.88
2022-09-23T10:27:36.869Z,4.30
2022-09-23T10:30:12.173Z,4.13
2022-09-23T10:32:48.156Z,4.82
2022-09-23T10:35:28.584Z,5.70
2022-09-23T10:38:05.079Z,5.45
2022-09-23T10:40:56.542Z,4.95
2022-09-23T10:43:50.188Z,7.20
2022-09-23T10:46:38.508Z,4.05
2022-09-23T10:49:33.190Z,3.53
2022-09-23T10:52:19.114Z,4.43
2022-09-23T10:55:01.044Z,5.80
2022-09-23T10:57:46.460Z,7.63
2022-09-23T11:00:29.277Z,11.63
2022-09-23T11:03:24.640Z,6.57
2022-09-23T11:06:04.112Z,4.80
2022-09-23T11:08:52.216Z,6.50
2022-09-23T11:11:36.488Z,4.25
2022-09-23T11:14:25.558Z,2.78
2022-09-23T11:17:15.134Z,3.65
2022-09-23T11:20:12.134Z,4.72
2022-09-23T11:23:00.864Z,8.00
2022-09-23T11:25:46.051Z,4.70
2022-09-23T11:28:54.621Z,3.17
2022-09-23T11:31:32.024Z,3.78
2022-09-23T11:34:20.275Z,3.65
2022-09-23T11:36:55.227Z,6.45
2022-09-23T11:39:36.884Z,3.72
2022-09-23T11:42:12.986Z,4.72
2022-09-23T11:44:51.248Z,4.90
2022-09-23T11:47:26.399Z,6.35
2022-09-23T11:50:12.826Z,4.05
2022-09-23T11:52:47.689Z,3.13
2022-09-23T11:55:23.404Z,3.65
2022-09-23T11:58:03.744Z,4.03
2022-09-23T12:00:51.968Z,5.40
2022-09-23T12:03:40.756Z,4.43
2022-09-23T12:06:17.398Z,4.20
2022-09-23T12:09:06.632Z,3.08
2022-09-23T12:11:55.946Z,4.90
2022-09-23T12:14:33.937Z,4.40
2022-09-23T12:17:30.365Z,3.33
2022-09-23T12:20:10.934Z,4.18
2022-09-23T12:22:50.597Z,5.25
2022-09-23T12:25:56.573Z,4.75
2022-09-23T12:28:27.635Z,6.07
2022-09-23T12:31:02.127Z,3.63
2022-09-23T12:36:15.779Z,4.85
2022-09-23T12:38:55.739Z,4.93
2022-09-23T12:41:30.224Z,3.60
2022-09-23T12:44:11.044Z,3.05
2022-09-23T12:46:42.689Z,5.72
2022-09-23T12:49:37.405Z,2.95
2022-09-23T12:52:27.440Z,3.13
2022-09-23T12:55:00.049Z,4.65
2022-09-23T12:57:42.919Z,2.92
2022-09-23T13:00:33.525Z,3.67
2022-09-23T13:03:40.761Z,7.93
2022-09-23T13:06:29.924Z,4.78
2022-09-23T13:08:58.374Z,4.65
2022-09-23T13:11:35.961Z,9.93
2022-09-23T13:14:17.659Z,4.47
2022-09-23T13:16:47.933Z,5.90
2022-09-23T13:19:44.988Z,4.32
2022-09-23T13:22:20.945Z,8.85
2022-09-23T13:24:56.615Z,4.78
2022-09-23T13:27:35.432Z,4.55
2022-09-23T13:30:26.321Z,7.30
2022-09-23T13:33:08.957Z,6.43
2022-09-23T13:35:51.284Z,7.22
2022-09-23T13:38:33.048Z,6.20
2022-09-23T13:41:06.263Z,4.90
2022-09-23T13:43:42.321Z,6.97
2022-09-23T13:46:20.297Z,4.25
2022-09-23T13:48:55.687Z,6.25
2022-09-23T13:51:30.461Z,6.38
2022-09-23T13:56:50.430Z,4.03
2022-09-23T13:59:30.356Z,5.55
2022-09-23T14:02:18.851Z,7.53
2022-09-23T14:04:50.496Z,6.18
2022-09-23T14:07:21.546Z,9.95
2022-09-23T14:09:59.629Z,4.53
2022-09-23T14:12:33.311Z,4.97
2022-09-23T14:15:19.689Z,5.32
2022-09-23T14:17:52.110Z,4.53
2022-09-23T14:20:24.361Z,4.43
2022-09-23T14:23:09.449Z,4.70
2022-09-23T14:25:39.475Z,5.95
2022-09-23T14:28:15.609Z,3.83
2022-09-23T14:30:50.866Z,4.43
2022-09-23T14:33:23.223Z,2.85
2022-09-23T14:36:14.634Z,4.82
2022-09-23T14:38:55.747Z,3.55
2022-09-23T14:41:27.298Z,7.35
2022-09-23T14:44:03.315Z,5.70
2022-09-23T14:46:40.190Z,5.50
2022-09-23T14:49:20.398Z,5.00
2022-09-23T14:51:55.686Z,4.50
2022-09-23T14:54:56.488Z,3.25
2022-09-23T14:57:32.568Z,4.65
2022-09-23T15:00:14.081Z,2.22
2022-09-23T15:02:47.434Z,3.28
2022-09-23T15:05:23.686Z,6.35
2022-09-23T15:08:07.358Z,6.28
2022-09-23T15:10:39.191Z,3.55
2022-09-23T15:13:19.911Z,4.95
2022-09-23T15:15:55.216Z,5.07
2022-09-23T15:18:31.140Z,5.43
2022-09-23T15:21:07.189Z,2.47
2022-09-23T15:23:44.696Z,3.40
2022-09-23T15:26:20.807Z,6.20
2022-09-23T15:28:56.133Z,4.78
2022-09-23T15:31:28.245Z,3.75
2022-09-23T15:34:06.221Z,2.75
2022-09-23T15:36:35.177Z,11.98
2022-09-23T15:39:09.183Z,4.18
2022-09-23T15:41:42.470Z,4.25
2022-09-23T15:44:18.830Z,5.18
2022-09-23T15:46:51.507Z,3.97
2022-09-23T15:49:28.145Z,5.13
2022-09-23T15:52:02.959Z,8.88
2022-09-23T15:54:34.731Z,7.55
2022-09-23T15:59:50.676Z,3.30
2022-09-23T16:02:25.505Z,4.85
2022-09-23T16:04:55.939Z,4.38
2022-09-23T16:07:26.836Z,3.70
2022-09-23T16:10:01.207Z,4.07
2022-09-23T16:12:36.694Z,4.72
2022-09-23T16:15:12.851Z,4.90
2022-09-23T16:17:46.205Z,6.03
2022-09-23T16:20:25.344Z,3.10
2022-09-23T16:22:58.279Z,4.78
2022-09-23T16:25:38.142Z,4.50
2022-09-23T16:28:13.491Z,4.28
2022-09-23T16:30:46.392Z,5.57
2022-09-23T16:33:14.972Z,8.70
2022-09-23T16:35:49.683Z,5.22
2022-09-23T16:38:21.282Z,2.95
2022-09-23T16:41:20.893Z,6.38
2022-09-23T16:43:56.471Z,5.93
2022-09-23T16:46:36.893Z,11.07
2022-09-23T16:49:15.083Z,6.70
2022-09-23T16:51:58.285Z,5.65
2022-09-23T16:54:51.440Z,4.55
2022-09-23T16:57:24.301Z,3.22
2022-09-23T17:00:19.174Z,5.68
2022-09-23T17:04:54.531Z,4.40
2022-09-23T17:06:59.302Z,6.82
2022-09-23T17:09:36.508Z,6.78
2022-09-23T17:12:21.887Z,5.70
2022-09-23T17:14:54.915Z,7.80
2022-09-23T17:17:23.834Z,5.25
2022-09-23T17:19:59.933Z,7.50
2022-09-23T17:22:39.241Z,6.88
2022-09-23T17:25:11.174Z,5.75
2022-09-23T17:27:45.070Z,5.90
2022-09-23T17:33:08.293Z,4.18
2022-09-23T17:35:45.501Z,3.63
2022-09-23T17:38:19.216Z,3.05
2022-09-23T17:40:54.585Z,3.83
2022-09-23T17:43:26.059Z,6.07
2022-09-23T17:46:05.324Z,7.63
2022-09-23T17:48:37.907Z,5.65
2022-09-23T17:51:28.270Z,3.88
2022-09-23T17:54:22.056Z,4.63
2022-09-23T17:57:01.713Z,5.97
2022-09-23T17:59:32.978Z,7.43
2022-09-23T18:02:09.817Z,6.20
2022-09-23T18:04:57.811Z,7.05
2022-09-23T18:07:30.091Z,6.75
2022-09-23T18:10:01.911Z,7.15
2022-09-23T18:12:36.386Z,4.82
2022-09-23T18:15:22.134Z,3.90
2022-09-23T18:17:52.367Z,11.68
2022-09-23T18:20:23.978Z,3.60
2022-09-23T18:22:57.374Z,3.83
2022-09-23T18:25:39.330Z,6.15
2022-09-23T18:28:11.033Z,5.40
2022-09-23T18:30:40.302Z,6.32
2022-09-23T18:33:14.106Z,3.95
2022-09-23T18:35:44.206Z,7.87
2022-09-23T18:38:14.733Z,6.68
2022-09-23T18:41:13.733Z,5.15
2022-09-23T18:43:51.520Z,6.72
2022-09-23T18:46:32.700Z,7.72
2022-09-23T18:49:19.843Z,5.85
2022-09-23T18:51:53.247Z,3.88
2022-09-23T18:54:24.282Z,7.90
2022-09-23T18:56:57.045Z,6.15
2022-09-23T18:59:29.897Z,6.93
2022-09-23T19:02:00.219Z,5.85
2022-09-23T19:04:31.713Z,7.22
2022-09-23T19:07:11.754Z,6.10
2022-09-23T19:09:44.334Z,7.53
2022-09-23T19:12:15.342Z,8.85
2022-09-23T19:14:44.979Z,6.63
2022-09-23T19:17:17.469Z,7.50
2022-09-23T19:19:48.493Z,6.20
2022-09-23T19:22:17.250Z,7.22
2022-09-23T19:24:47.240Z,7.07
2022-09-23T19:27:18.518Z,7.50
2022-09-23T19:29:47.577Z,6.22
2022-09-23T19:32:17.872Z,5.30
2022-09-23T19:34:46.482Z,8.07
2022-09-23T19:37:24.205Z,6.00
2022-09-23T19:39:59.141Z,9.77
2022-09-23T19:42:30.143Z,5.68
2022-09-23T19:45:03.760Z,8.30
2022-09-23T19:47:32.732Z,6.78
2022-09-23T19:50:07.593Z,7.40
2022-09-23T19:52:36.146Z,6.18
2022-09-23T19:55:07.688Z,6.93
2022-09-23T19:57:41.342Z,6.38
2022-09-23T20:00:16.642Z,6.72
2022-09-23T20:02:46.297Z,8.80
2022-09-23T20:05:20.569Z,8.32
2022-09-23T20:07:49.229Z,5.75
2022-09-23T20:10:19.497Z,9.50
2022-09-23T20:12:50.647Z,7.53
2022-09-23T20:15:26.153Z,7.35
2022-09-23T20:18:03.455Z,7.38
2022-09-23T20:20:35.402Z,12.32
2022-09-23T20:23:08.302Z,5.55
2022-09-23T20:25:52.303Z,9.45
2022-09-23T20:28:22.750Z,9.35
2022-09-23T20:30:54.791Z,6.35
2022-09-23T20:33:23.687Z,5.72
2022-09-23T20:35:55.789Z,6.53
2022-09-23T20:38:28.125Z,11.65
2022-09-23T20:40:59.195Z,9.93
2022-09-23T20:43:38.576Z,7.40
2022-09-23T20:46:10.474Z,6.40
2022-09-23T20:48:41.501Z,7.88
2022-09-23T20:51:13.671Z,7.38
2022-09-23T20:53:43.698Z,6.63
2022-09-23T20:56:16.937Z,8.52
2022-09-23T20:58:48.804Z,8.52
2022-09-23T21:01:20.836Z,7.72
2022-09-23T21:03:56.105Z,8.25
2022-09-23T21:06:26.766Z,9.35
2022-09-23T21:08:57.756Z,8.02
2022-09-23T21:11:34.143Z,9.25
2022-09-23T21:14:13.625Z,9.50
2022-09-23T21:16:47.413Z,8.75
2022-09-23T21:19:17.475Z,10.30
2022-09-23T21:21:48.812Z,11.55
2022-09-23T21:24:53.254Z,10.07
2022-09-23T21:27:18.877Z,8.55
2022-09-23T21:29:49.721Z,8.73
2022-09-23T21:32:18.225Z,9.52
2022-09-23T21:34:54.715Z,11.07
2022-09-23T21:37:26.847Z,8.30
2022-09-23T21:40:10.895Z,9.05
2022-09-23T21:42:40.975Z,10.00
2022-09-23T21:45:13.329Z,8.10
2022-09-23T21:47:44.390Z,12.50
2022-09-23T21:50:13.224Z,8.75
2022-09-23T21:52:50.534Z,11.15
2022-09-23T21:55:31.666Z,9.00
2022-09-23T21:58:01.614Z,10.23
2022-09-23T22:00:30.312Z,9.52
2022-09-23T22:03:03.370Z,8.63
2022-09-23T22:05:34.214Z,9.85
2022-09-23T22:08:06.001Z,10.73
2022-09-23T22:10:37.406Z,10.55
2022-09-23T22:13:13.150Z,9.43
2022-09-23T22:15:46.438Z,12.52
2022-09-23T22:18:14.925Z,11.85
2022-09-23T22:20:47.750Z,10.38
2022-09-23T22:23:21.049Z,11.48
2022-09-23T22:26:03.215Z,12.65
2022-09-23T22:28:56.506Z,12.10
2022-09-23T22:31:42.332Z,11.55
2022-09-23T22:34:31.052Z,10.40
2022-09-23T22:37:06.314Z,10.90
2022-09-23T22:39:36.916Z,8.85
2022-09-23T22:42:08.371Z,12.13
2022-09-23T22:44:44.024Z,11.77
2022-09-23T22:47:15.714Z,12.70
2022-09-23T22:49:47.622Z,11.32
2022-09-23T22:52:23.884Z,11.68
2022-09-23T22:55:01.860Z,10.55
2022-09-23T22:58:30.710Z,11.02
2022-09-23T23:01:02.690Z,12.13
2022-09-23T23:03:42.986Z,13.07
2022-09-23T23:06:16.597Z,13.73
2022-09-23T23:08:51.949Z,12.75
2022-09-23T23:11:21.796Z,15.95
2022-09-23T23:13:55.169Z,12.18
2022-09-23T23:16:38.422Z,13.45
2022-09-23T23:19:09.663Z,8.13
2022-09-23T23:21:54.655Z,8.35
2022-09-23T23:24:26.208Z,10.32
2022-09-23T23:26:56.645Z,9.02
2022-09-23T23:29:25.351Z,10.98
2022-09-23T23:31:59.244Z,10.23
2022-09-23T23:34:28.056Z,8.77
2022-09-23T23:37:01.169Z,9.38
2022-09-23T23:39:33.114Z,9.70
2022-09-23T23:42:01.785Z,10.07
2022-09-23T23:44:34.582Z,10.45
2022-09-23T23:47:05.430Z,8.93
2022-09-23T23:49:39.498Z,8.30
2022-09-23T23:52:12.963Z,10.65
2022-09-23T23:54:43.364Z,9.40
2022-09-23T23:57:14.888Z,7.07
2022-09-23T23:59:47.696Z,7.03
